createdAt,value
2019-05-02T00:02:33.139Z,11.92
2019-05-02T00:07:35.602Z,11.54
2019-05-02T00:12:38.079Z,11.69
2019-05-02T00:17:40.544Z,11.69
2019-05-02T00:22:42.994Z,11.69
2019-05-02T00:27:45.450Z,11.70
2019-05-02T00:32:47.904Z,11.36
2019-05-02T00:37:50.364Z,11.18
2019-05-02T00:42:53.190Z,11.17
2019-05-02T00:47:58.212Z,10.92
2019-05-02T00:53:00.680Z,11.02
2019-05-02T00:58:03.215Z,10.80
2019-05-02T01:03:05.689Z,10.96
2019-05-02T01:08:08.152Z,10.89
2019-05-02T01:13:14.620Z,10.84
2019-05-02T01:18:13.092Z,10.91
2019-05-02T01:23:15.566Z,10.79
2019-05-02T01:28:18.866Z,10.45
2019-05-02T01:33:23.046Z,10.20
2019-05-02T01:38:26.566Z,10.16
2019-05-02T01:43:30.750Z,10.42
2019-05-02T01:48:33.233Z,9.93
2019-05-02T01:53:35.903Z,9.93
2019-05-02T01:58:38.155Z,10.18
2019-05-02T02:03:45.697Z,10.27
2019-05-02T02:08:43.056Z,10.09
2019-05-02T02:13:45.524Z,9.80
2019-05-02T02:18:50.924Z,9.78
2019-05-02T02:23:53.399Z,9.96
2019-05-02T02:28:55.837Z,9.93
2019-05-02T02:33:58.295Z,9.82
2019-05-02T02:39:07.027Z,9.70
2019-05-02T02:44:12.487Z,9.89
2019-05-02T02:49:21.502Z,9.93
2019-05-02T02:54:17.393Z,9.95
2019-05-02T02:59:26.426Z,9.83
2019-05-02T03:04:22.306Z,9.73
2019-05-02T03:09:26.598Z,9.61
2019-05-02T03:14:27.216Z,9.61
2019-05-02T03:19:29.675Z,9.74
2019-05-02T03:24:36.558Z,9.68
2019-05-02T03:29:41.031Z,9.54
2019-05-02T03:34:47.228Z,9.57
2019-05-02T03:39:39.502Z,9.62
2019-05-02T03:44:42.030Z,9.69
2019-05-02T03:49:48.713Z,9.60
2019-05-02T03:54:52.090Z,9.76
2019-05-02T03:59:49.405Z,9.85
2019-05-02T04:04:54.263Z,9.67
2019-05-02T04:09:54.351Z,9.66
2019-05-02T04:14:57.444Z,9.49
2019-05-02T04:19:59.408Z,9.74
2019-05-02T04:25:01.758Z,9.72
2019-05-02T04:30:11.269Z,10.16
2019-05-02T04:35:06.699Z,10.23
2019-05-02T04:40:12.358Z,10.31
2019-05-02T04:45:25.227Z,10.54
2019-05-02T04:50:18.326Z,10.46
2019-05-02T04:55:26.130Z,10.89
2019-05-02T05:00:19.127Z,11.38
2019-05-02T05:05:25.530Z,11.54
2019-05-02T05:10:24.097Z,11.73
2019-05-02T05:15:37.299Z,12.13
2019-05-02T05:20:29.029Z,12.29
2019-05-02T05:25:34.463Z,12.45
2019-05-02T05:30:44.710Z,12.52
2019-05-02T05:35:43.201Z,12.56
2019-05-02T05:40:41.920Z,12.69
2019-05-02T05:45:53.458Z,13.09
2019-05-02T05:50:47.771Z,13.24
2019-05-02T05:55:53.554Z,13.38
2019-05-02T06:00:55.438Z,14.04
2019-05-02T06:05:54.264Z,15.00
2019-05-02T06:10:56.713Z,15.97
2019-05-02T06:16:02.764Z,17.01
2019-05-02T06:21:03.334Z,17.92
2019-05-02T06:26:07.875Z,17.13
2019-05-02T06:31:07.170Z,18.32
2019-05-02T06:36:09.132Z,18.44
2019-05-02T06:41:11.605Z,17.88
2019-05-02T06:46:16.259Z,17.37
2019-05-02T06:51:19.575Z,17.27
2019-05-02T06:56:19.010Z,17.31
2019-05-02T07:01:22.858Z,17.66
2019-05-02T07:06:24.103Z,17.45
2019-05-02T07:11:26.415Z,17.29
2019-05-02T07:16:41.015Z,17.17
2019-05-02T07:21:43.503Z,17.31
2019-05-02T07:26:45.976Z,17.85
2019-05-02T07:31:48.927Z,17.88
2019-05-02T07:36:50.915Z,17.98
2019-05-02T07:41:53.377Z,18.22
2019-05-02T07:46:57.008Z,18.41
2019-05-02T07:51:58.976Z,19.84
2019-05-02T07:57:02.420Z,19.95
2019-05-02T08:02:03.247Z,19.69
2019-05-02T08:07:05.723Z,20.61
2019-05-02T08:12:08.182Z,23.24
2019-05-02T08:17:16.885Z,23.68
2019-05-02T08:22:14.842Z,27.70
2019-05-02T08:27:23.212Z,31.91
2019-05-02T08:32:24.336Z,36.47
2019-05-02T08:37:26.804Z,36.43
2019-05-02T08:42:32.534Z,37.13
2019-05-02T08:47:31.753Z,41.44
2019-05-02T08:52:36.807Z,43.74
2019-05-02T08:57:36.737Z,45.04
2019-05-02T09:02:41.414Z,47.41
2019-05-02T09:07:43.111Z,47.71
2019-05-02T09:12:45.587Z,48.82
2019-05-02T09:17:52.808Z,45.70
2019-05-02T09:22:52.200Z,45.26
2019-05-02T09:27:52.680Z,46.77
2019-05-02T09:32:57.058Z,49.87
2019-05-02T09:37:56.781Z,50.58
2019-05-02T09:43:02.081Z,48.86
2019-05-02T09:48:07.178Z,49.67
2019-05-02T09:53:04.210Z,44.99
2019-05-02T09:58:10.365Z,39.62
2019-05-02T10:03:09.159Z,42.05
2019-05-02T10:08:13.919Z,46.03
2019-05-02T10:13:14.126Z,44.17
2019-05-02T10:18:19.771Z,46.23
2019-05-02T10:23:19.796Z,39.61
2019-05-02T10:28:22.865Z,38.57
2019-05-02T10:33:27.867Z,36.25
2019-05-02T10:38:26.409Z,35.00
2019-05-02T10:43:28.872Z,34.73
2019-05-02T10:48:33.192Z,34.71
2019-05-02T10:53:33.834Z,32.73
2019-05-02T10:58:36.297Z,34.74
2019-05-02T11:03:45.008Z,37.75
2019-05-02T11:08:45.948Z,40.33
2019-05-02T11:13:46.358Z,42.33
2019-05-02T11:18:55.124Z,44.33
2019-05-02T11:23:57.720Z,43.36
2019-05-02T11:29:00.261Z,44.54
2019-05-02T11:34:02.727Z,43.21
2019-05-02T11:39:17.074Z,45.91
2019-05-02T11:44:07.657Z,44.75
2019-05-02T11:49:12.099Z,41.00
2019-05-02T11:54:13.096Z,39.19
2019-05-02T11:59:15.142Z,39.35
2019-05-02T12:04:17.576Z,38.98
2019-05-02T12:09:24.017Z,37.84
2019-05-02T12:14:27.406Z,36.73
2019-05-02T12:19:28.934Z,34.55
2019-05-02T12:24:31.976Z,32.59
2019-05-02T12:29:33.848Z,29.96
2019-05-02T12:34:36.310Z,28.70
2019-05-02T12:39:38.765Z,29.07
2019-05-02T12:44:42.615Z,32.65
2019-05-02T12:49:43.701Z,30.03
2019-05-02T12:54:46.217Z,29.46
2019-05-02T12:59:48.672Z,28.71
2019-05-02T13:04:52.756Z,29.02
2019-05-02T13:09:53.630Z,30.23
2019-05-02T13:14:56.080Z,29.84
2019-05-02T13:20:01.507Z,29.85
2019-05-02T13:25:02.295Z,27.84
2019-05-02T13:30:03.575Z,28.59
2019-05-02T13:35:12.883Z,29.66
2019-05-02T13:40:22.452Z,28.25
2019-05-02T13:45:38.130Z,26.90
2019-05-02T13:50:42.362Z,27.27
2019-05-02T13:55:43.086Z,26.52
2019-05-02T14:00:45.547Z,26.84
2019-05-02T14:05:50.754Z,26.84
2019-05-02T14:10:59.462Z,26.55
2019-05-02T14:16:02.347Z,25.83
2019-05-02T14:21:04.390Z,25.93
2019-05-02T14:26:06.819Z,25.32
2019-05-02T14:31:09.279Z,25.60
2019-05-02T14:36:11.749Z,25.54
2019-05-02T14:41:14.191Z,25.65
2019-05-02T14:46:19.521Z,25.78
2019-05-02T14:51:27.404Z,26.11
2019-05-02T14:56:37.649Z,25.55
2019-05-02T15:01:35.755Z,25.73
2019-05-02T15:06:42.373Z,24.99
2019-05-02T15:11:59.340Z,24.67
2019-05-02T15:17:02.541Z,24.72
2019-05-02T15:22:04.300Z,24.82
2019-05-02T15:27:11.664Z,24.27
2019-05-02T15:32:09.256Z,23.68
2019-05-02T15:37:12.481Z,23.48
2019-05-02T15:42:17.886Z,23.12
2019-05-02T15:47:16.730Z,22.87
2019-05-02T15:52:24.231Z,22.61
2019-05-02T15:57:25.040Z,22.47
2019-05-02T16:02:27.091Z,22.27
2019-05-02T16:07:29.572Z,21.81
2019-05-02T16:12:35.948Z,21.14
2019-05-02T16:17:34.500Z,20.46
2019-05-02T16:22:38.305Z,20.04
2019-05-02T16:27:45.556Z,19.55
2019-05-02T16:32:52.265Z,19.41
2019-05-02T16:37:55.978Z,18.93
2019-05-02T16:42:55.844Z,18.14
2019-05-02T16:48:00.192Z,17.79
2019-05-02T16:53:02.266Z,17.83
2019-05-02T16:58:07.038Z,17.73
2019-05-02T17:03:05.765Z,17.39
2019-05-02T17:08:10.545Z,17.37
2019-05-02T17:13:12.492Z,17.15
2019-05-02T17:18:17.834Z,17.15
2019-05-02T17:23:15.730Z,17.00
2019-05-02T17:28:18.205Z,17.03
2019-05-02T17:33:21.757Z,16.97
2019-05-02T17:38:24.948Z,16.94
2019-05-02T17:43:25.618Z,16.93
2019-05-02T17:48:29.406Z,16.65
2019-05-02T17:53:33.874Z,16.64
2019-05-02T17:58:33.077Z,16.55
2019-05-02T18:03:35.623Z,16.28
2019-05-02T18:08:38.067Z,16.24
2019-05-02T18:13:42.336Z,16.18
2019-05-02T18:18:46.630Z,16.17
2019-05-02T18:23:45.529Z,16.06
2019-05-02T18:28:49.389Z,16.03
2019-05-02T18:33:52.074Z,15.94
2019-05-02T18:39:00.216Z,15.83
2019-05-02T18:43:55.479Z,15.90
2019-05-02T18:48:59.224Z,15.86
2019-05-02T18:54:04.202Z,15.88
2019-05-02T18:59:03.025Z,15.95
2019-05-02T19:04:05.522Z,15.84
2019-05-02T19:09:08.029Z,15.93
2019-05-02T19:14:11.746Z,15.84
2019-05-02T19:19:13.008Z,15.85
2019-05-02T19:24:15.484Z,15.85
2019-05-02T19:29:26.917Z,15.83
2019-05-02T19:34:29.406Z,15.79
2019-05-02T19:39:32.270Z,15.83
2019-05-02T19:44:34.363Z,15.82
2019-05-02T19:49:36.846Z,15.72
2019-05-02T19:54:41.147Z,15.66
2019-05-02T19:59:43.142Z,15.68
2019-05-02T20:04:44.436Z,15.64
2019-05-02T20:09:47.419Z,15.58
2019-05-02T20:14:49.284Z,15.46
2019-05-02T20:19:52.905Z,15.35
2019-05-02T20:24:58.304Z,15.32
2019-05-02T20:29:56.782Z,15.32
2019-05-02T20:34:59.260Z,15.30
2019-05-02T20:40:02.806Z,15.33
2019-05-02T20:45:04.234Z,15.29
2019-05-02T20:50:06.725Z,15.31
2019-05-02T20:55:09.182Z,15.24
2019-05-02T21:00:23.275Z,15.19
2019-05-02T21:05:22.825Z,15.15
2019-05-02T21:10:32.284Z,15.22
2019-05-02T21:15:33.722Z,15.22
2019-05-02T21:20:36.192Z,15.15
2019-05-02T21:25:38.649Z,15.02
2019-05-02T21:30:41.629Z,15.02
2019-05-02T21:35:43.600Z,15.04
2019-05-02T21:40:46.164Z,15.08
2019-05-02T21:45:48.624Z,15.06
2019-05-02T21:50:51.123Z,14.99
2019-05-02T21:55:56.517Z,15.00
2019-05-02T22:00:58.980Z,15.01
2019-05-02T22:06:01.437Z,15.01
2019-05-02T22:11:03.911Z,14.95
2019-05-02T22:16:06.382Z,14.89
2019-05-02T22:21:08.871Z,14.91
2019-05-02T22:26:12.738Z,14.94
2019-05-02T22:31:13.896Z,14.76
2019-05-02T22:36:16.395Z,14.81
2019-05-02T22:41:18.850Z,14.73
2019-05-02T22:46:39.741Z,14.69
2019-05-02T22:51:42.724Z,14.69
2019-05-02T22:56:44.654Z,14.72
2019-05-02T23:01:47.108Z,14.63
2019-05-02T23:06:49.579Z,14.49
2019-05-02T23:11:52.058Z,14.31
2019-05-02T23:16:54.503Z,14.31
2019-05-02T23:21:57.245Z,14.30
2019-05-02T23:27:17.692Z,14.43
2019-05-02T23:32:23.631Z,14.56
2019-05-02T23:37:22.582Z,14.58
2019-05-02T23:42:25.028Z,14.56
2019-05-02T23:47:27.482Z,14.59
2019-05-02T23:52:31.571Z,14.49
2019-05-02T23:57:32.563Z,14.50
